Greenbrae, California
Current Conditions -  °F | °C
As of 6:15 AM on Thursday 27 Nov 2014 (Local Time) from KDVO Reporting Station
Haze Haze  
Wind Chill: 43°   Ceiling: Unl
Heat Index: 43°   Visibility: 3mi
Dew Point: 43°   Wind: 0mph
Humidity: 100%   Direction: NA
Pressure: 30.2"   Gusts: NA
Location:  37.95°N, 122.52°W
Report Text: KDVO 271415Z AUTO 00000KT 3SM BR CLR 06/06 A3020 RMK AO2
Loading
Personal Weather Stations






























Interactive Weather Map New forecast layout! Learn more

10-Day Weather Forecast

Advertisements
Track Severe Weather on mobile